sensor_id;sensor_type;location;lat;lon;timestamp;P1;durP1;ratioP1;P2;durP2;ratioP2
31974;SDS011;18500;43.618;1.474;2023-01-24T00:00:55;534.97;;;496.33;;
31974;SDS011;18500;43.618;1.474;2023-01-24T00:03:21;466.88;;;433.83;;
31974;SDS011;18500;43.618;1.474;2023-01-24T00:05:47;510.98;;;475.10;;
31974;SDS011;18500;43.618;1.474;2023-01-24T00:08:14;443.30;;;410.83;;
31974;SDS011;18500;43.618;1.474;2023-01-24T00:10:44;606.55;;;560.45;;
31974;SDS011;18500;43.618;1.474;2023-01-24T00:13:10;605.55;;;561.28;;
31974;SDS011;18500;43.618;1.474;2023-01-24T00:15:37;543.97;;;503.67;;
31974;SDS011;18500;43.618;1.474;2023-01-24T00:18:03;643.22;;;596.45;;
31974;SDS011;18500;43.618;1.474;2023-01-24T00:20:28;512.15;;;476.70;;
31974;SDS011;18500;43.618;1.474;2023-01-24T00:22:54;496.05;;;460.95;;
31974;SDS011;18500;43.618;1.474;2023-01-24T00:25:20;453.65;;;421.90;;
31974;SDS011;18500;43.618;1.474;2023-01-24T00:27:45;537.38;;;498.45;;
31974;SDS011;18500;43.618;1.474;2023-01-24T00:30:11;557.55;;;516.35;;
31974;SDS011;18500;43.618;1.474;2023-01-24T00:32:37;608.80;;;563.90;;
31974;SDS011;18500;43.618;1.474;2023-01-24T00:35:03;619.20;;;574.35;;
31974;SDS011;18500;43.618;1.474;2023-01-24T00:37:29;557.60;;;516.65;;
31974;SDS011;18500;43.618;1.474;2023-01-24T00:39:54;590.47;;;548.75;;
31974;SDS011;18500;43.618;1.474;2023-01-24T00:42:20;528.15;;;489.88;;
31974;SDS011;18500;43.618;1.474;2023-01-24T00:44:46;514.33;;;478.38;;
31974;SDS011;18500;43.618;1.474;2023-01-24T00:47:11;492.33;;;457.75;;
31974;SDS011;18500;43.618;1.474;2023-01-24T00:49:37;441.15;;;409.52;;
31974;SDS011;18500;43.618;1.474;2023-01-24T00:52:03;607.80;;;562.22;;
31974;SDS011;18500;43.618;1.474;2023-01-24T00:54:28;555.65;;;513.97;;
31974;SDS011;18500;43.618;1.474;2023-01-24T00:56:54;543.58;;;505.42;;
31974;SDS011;18500;43.618;1.474;2023-01-24T00:59:20;495.42;;;460.45;;
31974;SDS011;18500;43.618;1.474;2023-01-24T01:01:45;489.80;;;455.40;;
31974;SDS011;18500;43.618;1.474;2023-01-24T01:04:11;526.35;;;488.88;;
31974;SDS011;18500;43.618;1.474;2023-01-24T01:06:37;580.25;;;536.85;;
31974;SDS011;18500;43.618;1.474;2023-01-24T01:09:02;530.55;;;492.40;;
31974;SDS011;18500;43.618;1.474;2023-01-24T01:11:28;539.63;;;502.13;;
31974;SDS011;18500;43.618;1.474;2023-01-24T01:13:54;387.15;;;359.63;;
31974;SDS011;18500;43.618;1.474;2023-01-24T01:16:21;458.20;;;424.67;;
31974;SDS011;18500;43.618;1.474;2023-01-24T01:18:47;483.83;;;449.15;;
31974;SDS011;18500;43.618;1.474;2023-01-24T01:21:14;381.67;;;354.10;;
31974;SDS011;18500;43.618;1.474;2023-01-24T01:23:41;365.40;;;337.83;;
31974;SDS011;18500;43.618;1.474;2023-01-24T01:26:08;495.88;;;459.30;;
31974;SDS011;18500;43.618;1.474;2023-01-24T01:28:37;551.13;;;510.20;;
31974;SDS011;18500;43.618;1.474;2023-01-24T01:31:03;443.02;;;411.85;;
31974;SDS011;18500;43.618;1.474;2023-01-24T01:33:29;513.10;;;475.58;;
31974;SDS011;18500;43.618;1.474;2023-01-24T01:35:54;442.33;;;410.55;;
31974;SDS011;18500;43.618;1.474;2023-01-24T01:38:20;480.30;;;444.58;;
31974;SDS011;18500;43.618;1.474;2023-01-24T01:40:49;449.75;;;417.90;;
31974;SDS011;18500;43.618;1.474;2023-01-24T01:43:16;491.85;;;457.23;;
31974;SDS011;18500;43.618;1.474;2023-01-24T01:45:46;388.25;;;361.08;;
31974;SDS011;18500;43.618;1.474;2023-01-24T01:54:20;285.00;;;263.98;;
31974;SDS011;18500;43.618;1.474;2023-01-24T01:56:56;420.35;;;390.10;;
31974;SDS011;18500;43.618;1.474;2023-01-24T01:59:26;544.03;;;503.42;;
31974;SDS011;18500;43.618;1.474;2023-01-24T02:01:55;440.02;;;407.77;;
31974;SDS011;18500;43.618;1.474;2023-01-24T02:04:24;346.92;;;320.73;;
31974;SDS011;18500;43.618;1.474;2023-01-24T02:07:00;508.88;;;472.17;;
31974;SDS011;18500;43.618;1.474;2023-01-24T02:09:34;365.52;;;340.13;;
31974;SDS011;18500;43.618;1.474;2023-01-24T02:12:06;291.40;;;270.83;;
31974;SDS011;18500;43.618;1.474;2023-01-24T02:14:38;407.35;;;378.70;;
31974;SDS011;18500;43.618;1.474;2023-01-24T02:17:23;454.02;;;420.58;;
31974;SDS011;18500;43.618;1.474;2023-01-24T02:27:34;354.92;;;329.98;;
31974;SDS011;18500;43.618;1.474;2023-01-24T02:29:59;409.20;;;379.33;;
31974;SDS011;18500;43.618;1.474;2023-01-24T02:32:25;531.53;;;492.50;;
31974;SDS011;18500;43.618;1.474;2023-01-24T02:34:51;379.35;;;353.02;;
31974;SDS011;18500;43.618;1.474;2023-01-24T02:37:16;521.10;;;483.67;;
31974;SDS011;18500;43.618;1.474;2023-01-24T02:39:57;416.35;;;386.30;;
31974;SDS011;18500;43.618;1.474;2023-01-24T02:42:49;447.58;;;417.20;;
31974;SDS011;18500;43.618;1.474;2023-01-24T02:45:21;513.40;;;475.90;;
31974;SDS011;18500;43.618;1.474;2023-01-24T02:47:52;557.85;;;516.45;;
31974;SDS011;18500;43.618;1.474;2023-01-24T02:50:20;390.63;;;362.98;;
31974;SDS011;18500;43.618;1.474;2023-01-24T02:52:48;393.73;;;364.70;;
31974;SDS011;18500;43.618;1.474;2023-01-24T02:55:33;411.27;;;381.67;;
31974;SDS011;18500;43.618;1.474;2023-01-24T02:58:20;411.00;;;382.13;;
31974;SDS011;18500;43.618;1.474;2023-01-24T03:00:46;416.42;;;387.92;;
31974;SDS011;18500;43.618;1.474;2023-01-24T03:03:11;487.80;;;453.98;;
31974;SDS011;18500;43.618;1.474;2023-01-24T03:05:37;508.95;;;474.02;;
31974;SDS011;18500;43.618;1.474;2023-01-24T03:08:25;400.02;;;372.48;;
31974;SDS011;18500;43.618;1.474;2023-01-24T03:10:53;409.67;;;380.93;;
31974;SDS011;18500;43.618;1.474;2023-01-24T03:13:19;578.05;;;535.00;;
31974;SDS011;18500;43.618;1.474;2023-01-24T03:16:04;373.30;;;347.38;;
31974;SDS011;18500;43.618;1.474;2023-01-24T03:18:48;422.85;;;393.17;;
31974;SDS011;18500;43.618;1.474;2023-01-24T03:21:33;423.13;;;394.75;;
31974;SDS011;18500;43.618;1.474;2023-01-24T03:24:17;379.55;;;354.38;;
31974;SDS011;18500;43.618;1.474;2023-01-24T03:27:02;463.52;;;431.85;;
31974;SDS011;18500;43.618;1.474;2023-01-24T03:29:46;532.78;;;493.42;;
31974;SDS011;18500;43.618;1.474;2023-01-24T03:32:30;468.00;;;435.25;;
31974;SDS011;18500;43.618;1.474;2023-01-24T03:35:14;445.27;;;414.33;;
31974;SDS011;18500;43.618;1.474;2023-01-24T03:37:40;504.75;;;469.33;;
31974;SDS011;18500;43.618;1.474;2023-01-24T03:40:25;484.77;;;451.45;;
31974;SDS011;18500;43.618;1.474;2023-01-24T03:42:50;409.67;;;381.20;;
31974;SDS011;18500;43.618;1.474;2023-01-24T03:45:17;543.75;;;506.67;;
31974;SDS011;18500;43.618;1.474;2023-01-24T03:47:47;518.08;;;481.38;;
31974;SDS011;18500;43.618;1.474;2023-01-24T03:50:21;469.25;;;435.45;;
31974;SDS011;18500;43.618;1.474;2023-01-24T03:53:08;488.13;;;453.55;;
31974;SDS011;18500;43.618;1.474;2023-01-24T03:55:34;463.60;;;431.33;;
31974;SDS011;18500;43.618;1.474;2023-01-24T03:58:00;537.10;;;497.13;;
31974;SDS011;18500;43.618;1.474;2023-01-24T04:00:26;513.30;;;476.63;;
31974;SDS011;18500;43.618;1.474;2023-01-24T04:02:52;419.45;;;389.08;;
31974;SDS011;18500;43.618;1.474;2023-01-24T04:05:18;516.30;;;477.63;;
31974;SDS011;18500;43.618;1.474;2023-01-24T04:07:45;523.50;;;485.77;;
31974;SDS011;18500;43.618;1.474;2023-01-24T04:10:11;525.80;;;486.75;;
31974;SDS011;18500;43.618;1.474;2023-01-24T04:12:38;382.73;;;355.13;;
31974;SDS011;18500;43.618;1.474;2023-01-24T04:15:05;467.27;;;433.33;;
31974;SDS011;18500;43.618;1.474;2023-01-24T04:17:31;498.45;;;463.58;;
31974;SDS011;18500;43.618;1.474;2023-01-24T04:19:57;440.75;;;410.02;;
31974;SDS011;18500;43.618;1.474;2023-01-24T04:22:23;475.45;;;441.35;;
31974;SDS011;18500;43.618;1.474;2023-01-24T04:24:48;512.47;;;476.58;;
31974;SDS011;18500;43.618;1.474;2023-01-24T04:27:14;490.83;;;455.85;;
31974;SDS011;18500;43.618;1.474;2023-01-24T04:29:40;544.50;;;505.33;;
31974;SDS011;18500;43.618;1.474;2023-01-24T04:32:06;544.22;;;503.83;;
31974;SDS011;18500;43.618;1.474;2023-01-24T04:34:32;489.10;;;453.75;;
31974;SDS011;18500;43.618;1.474;2023-01-24T04:36:58;503.52;;;468.02;;
31974;SDS011;18500;43.618;1.474;2023-01-24T04:39:24;419.75;;;390.27;;
31974;SDS011;18500;43.618;1.474;2023-01-24T04:41:49;485.70;;;452.48;;
31974;SDS011;18500;43.618;1.474;2023-01-24T04:44:15;514.47;;;478.92;;
31974;SDS011;18500;43.618;1.474;2023-01-24T04:46:41;502.45;;;467.52;;
31974;SDS011;18500;43.618;1.474;2023-01-24T04:49:06;473.35;;;439.95;;
31974;SDS011;18500;43.618;1.474;2023-01-24T04:51:32;516.83;;;479.95;;
31974;SDS011;18500;43.618;1.474;2023-01-24T04:53:58;500.73;;;465.15;;
31974;SDS011;18500;43.618;1.474;2023-01-24T04:56:23;486.25;;;452.23;;
31974;SDS011;18500;43.618;1.474;2023-01-24T04:58:49;511.05;;;473.65;;
31974;SDS011;18500;43.618;1.474;2023-01-24T05:01:15;547.20;;;508.10;;
31974;SDS011;18500;43.618;1.474;2023-01-24T05:03:40;541.20;;;503.02;;
31974;SDS011;18500;43.618;1.474;2023-01-24T05:06:06;519.72;;;484.38;;
31974;SDS011;18500;43.618;1.474;2023-01-24T05:08:32;563.95;;;523.95;;
31974;SDS011;18500;43.618;1.474;2023-01-24T05:11:03;461.30;;;430.27;;
31974;SDS011;18500;43.618;1.474;2023-01-24T05:13:29;492.52;;;459.35;;
31974;SDS011;18500;43.618;1.474;2023-01-24T05:15:55;523.92;;;486.83;;
31974;SDS011;18500;43.618;1.474;2023-01-24T05:18:20;480.83;;;447.42;;
31974;SDS011;18500;43.618;1.474;2023-01-24T05:20:46;485.13;;;451.33;;
31974;SDS011;18500;43.618;1.474;2023-01-24T05:23:12;536.75;;;499.45;;
31974;SDS011;18500;43.618;1.474;2023-01-24T05:25:37;490.95;;;456.83;;
31974;SDS011;18500;43.618;1.474;2023-01-24T05:28:03;530.92;;;491.73;;
31974;SDS011;18500;43.618;1.474;2023-01-24T05:30:30;555.45;;;513.80;;
31974;SDS011;18500;43.618;1.474;2023-01-24T05:32:56;513.78;;;478.20;;
31974;SDS011;18500;43.618;1.474;2023-01-24T05:35:22;608.95;;;565.60;;
31974;SDS011;18500;43.618;1.474;2023-01-24T05:37:48;548.25;;;508.30;;
31974;SDS011;18500;43.618;1.474;2023-01-24T05:40:15;508.13;;;472.48;;
31974;SDS011;18500;43.618;1.474;2023-01-24T05:42:41;569.42;;;528.50;;
31974;SDS011;18500;43.618;1.474;2023-01-24T05:45:07;486.98;;;454.00;;
31974;SDS011;18500;43.618;1.474;2023-01-24T05:47:34;601.17;;;559.10;;
31974;SDS011;18500;43.618;1.474;2023-01-24T05:49:59;556.90;;;518.03;;
31974;SDS011;18500;43.618;1.474;2023-01-24T05:52:25;565.97;;;527.10;;
31974;SDS011;18500;43.618;1.474;2023-01-24T05:54:51;506.45;;;472.45;;
31974;SDS011;18500;43.618;1.474;2023-01-24T05:57:17;554.85;;;515.55;;
31974;SDS011;18500;43.618;1.474;2023-01-24T05:59:43;522.55;;;486.95;;
31974;SDS011;18500;43.618;1.474;2023-01-24T06:02:09;567.95;;;528.10;;
31974;SDS011;18500;43.618;1.474;2023-01-24T06:04:35;576.50;;;536.47;;
31974;SDS011;18500;43.618;1.474;2023-01-24T06:07:00;565.78;;;525.50;;
31974;SDS011;18500;43.618;1.474;2023-01-24T06:09:26;530.97;;;492.85;;
31974;SDS011;18500;43.618;1.474;2023-01-24T06:11:52;542.03;;;503.20;;
31974;SDS011;18500;43.618;1.474;2023-01-24T06:14:18;576.28;;;535.25;;
31974;SDS011;18500;43.618;1.474;2023-01-24T06:16:44;581.30;;;540.22;;
31974;SDS011;18500;43.618;1.474;2023-01-24T06:19:11;500.38;;;465.33;;
31974;SDS011;18500;43.618;1.474;2023-01-24T06:24:28;535.60;;;499.15;;
31974;SDS011;18500;43.618;1.474;2023-01-24T06:26:54;608.30;;;564.95;;
31974;SDS011;18500;43.618;1.474;2023-01-24T06:29:21;532.00;;;495.52;;
31974;SDS011;18500;43.618;1.474;2023-01-24T06:35:06;553.85;;;513.88;;
31974;SDS011;18500;43.618;1.474;2023-01-24T06:37:50;600.45;;;558.35;;
31974;SDS011;18500;43.618;1.474;2023-01-24T06:40:18;509.25;;;472.98;;
31974;SDS011;18500;43.618;1.474;2023-01-24T06:42:48;619.28;;;575.47;;
31974;SDS011;18500;43.618;1.474;2023-01-24T06:45:15;615.83;;;571.80;;
31974;SDS011;18500;43.618;1.474;2023-01-24T06:47:41;547.75;;;508.02;;
31974;SDS011;18500;43.618;1.474;2023-01-24T06:50:18;563.88;;;524.05;;
31974;SDS011;18500;43.618;1.474;2023-01-24T06:52:45;574.45;;;534.28;;
31974;SDS011;18500;43.618;1.474;2023-01-24T06:55:12;496.80;;;461.02;;
31974;SDS011;18500;43.618;1.474;2023-01-24T06:57:38;564.38;;;525.33;;
31974;SDS011;18500;43.618;1.474;2023-01-24T07:00:04;604.85;;;562.13;;
31974;SDS011;18500;43.618;1.474;2023-01-24T07:02:30;495.60;;;461.42;;
31974;SDS011;18500;43.618;1.474;2023-01-24T07:04:56;543.72;;;505.50;;
31974;SDS011;18500;43.618;1.474;2023-01-24T07:07:21;575.33;;;534.97;;
31974;SDS011;18500;43.618;1.474;2023-01-24T07:09:47;588.05;;;546.00;;
31974;SDS011;18500;43.618;1.474;2023-01-24T07:12:13;525.10;;;488.17;;
31974;SDS011;18500;43.618;1.474;2023-01-24T07:14:38;491.58;;;456.40;;
31974;SDS011;18500;43.618;1.474;2023-01-24T07:17:04;453.48;;;422.25;;
31974;SDS011;18500;43.618;1.474;2023-01-24T07:19:30;536.75;;;499.98;;
31974;SDS011;18500;43.618;1.474;2023-01-24T07:21:56;541.72;;;504.45;;
31974;SDS011;18500;43.618;1.474;2023-01-24T07:24:23;466.58;;;432.67;;
31974;SDS011;18500;43.618;1.474;2023-01-24T07:26:51;445.63;;;414.08;;
31974;SDS011;18500;43.618;1.474;2023-01-24T07:29:17;470.98;;;438.98;;
31974;SDS011;18500;43.618;1.474;2023-01-24T07:31:43;538.92;;;500.15;;
31974;SDS011;18500;43.618;1.474;2023-01-24T07:34:09;455.33;;;423.10;;
31974;SDS011;18500;43.618;1.474;2023-01-24T07:36:35;498.17;;;462.52;;
31974;SDS011;18500;43.618;1.474;2023-01-24T07:39:01;456.25;;;425.58;;
31974;SDS011;18500;43.618;1.474;2023-01-24T07:41:27;557.83;;;516.17;;
31974;SDS011;18500;43.618;1.474;2023-01-24T07:43:53;483.00;;;448.83;;
31974;SDS011;18500;43.618;1.474;2023-01-24T07:46:20;531.78;;;495.08;;
31974;SDS011;18500;43.618;1.474;2023-01-24T07:48:45;487.75;;;453.88;;
31974;SDS011;18500;43.618;1.474;2023-01-24T07:51:11;578.08;;;537.17;;
31974;SDS011;18500;43.618;1.474;2023-01-24T07:53:37;530.60;;;494.17;;
31974;SDS011;18500;43.618;1.474;2023-01-24T07:56:03;484.00;;;451.00;;
31974;SDS011;18500;43.618;1.474;2023-01-24T07:58:29;563.50;;;524.30;;
31974;SDS011;18500;43.618;1.474;2023-01-24T08:00:55;567.95;;;527.97;;
31974;SDS011;18500;43.618;1.474;2023-01-24T08:03:21;439.58;;;407.52;;
31974;SDS011;18500;43.618;1.474;2023-01-24T08:05:47;538.28;;;502.00;;
31974;SDS011;18500;43.618;1.474;2023-01-24T08:08:12;528.25;;;490.50;;
31974;SDS011;18500;43.618;1.474;2023-01-24T08:10:38;542.25;;;498.02;;
31974;SDS011;18500;43.618;1.474;2023-01-24T08:13:04;543.28;;;503.83;;
31974;SDS011;18500;43.618;1.474;2023-01-24T08:15:29;518.22;;;480.85;;
31974;SDS011;18500;43.618;1.474;2023-01-24T08:17:55;568.05;;;527.50;;
31974;SDS011;18500;43.618;1.474;2023-01-24T08:20:21;482.35;;;449.40;;
31974;SDS011;18500;43.618;1.474;2023-01-24T08:22:46;491.45;;;459.17;;
31974;SDS011;18500;43.618;1.474;2023-01-24T08:25:12;499.02;;;464.08;;
31974;SDS011;18500;43.618;1.474;2023-01-24T08:27:41;538.35;;;500.67;;
31974;SDS011;18500;43.618;1.474;2023-01-24T08:30:10;540.28;;;502.02;;
31974;SDS011;18500;43.618;1.474;2023-01-24T08:32:36;568.15;;;528.17;;
31974;SDS011;18500;43.618;1.474;2023-01-24T08:35:02;504.77;;;468.60;;
31974;SDS011;18500;43.618;1.474;2023-01-24T08:37:28;596.97;;;553.92;;
31974;SDS011;18500;43.618;1.474;2023-01-24T08:39:54;594.35;;;551.50;;
31974;SDS011;18500;43.618;1.474;2023-01-24T08:42:21;617.55;;;573.75;;
31974;SDS011;18500;43.618;1.474;2023-01-24T08:44:48;682.63;;;634.13;;
31974;SDS011;18500;43.618;1.474;2023-01-24T08:47:14;710.30;;;659.50;;
31974;SDS011;18500;43.618;1.474;2023-01-24T08:49:39;729.33;;;676.90;;
31974;SDS011;18500;43.618;1.474;2023-01-24T08:52:05;708.80;;;656.65;;
31974;SDS011;18500;43.618;1.474;2023-01-24T08:54:31;701.55;;;650.53;;
31974;SDS011;18500;43.618;1.474;2023-01-24T08:56:58;696.40;;;645.83;;
31974;SDS011;18500;43.618;1.474;2023-01-24T08:59:24;715.33;;;664.78;;
31974;SDS011;18500;43.618;1.474;2023-01-24T09:01:50;711.40;;;660.70;;
31974;SDS011;18500;43.618;1.474;2023-01-24T09:04:16;683.78;;;636.08;;
31974;SDS011;18500;43.618;1.474;2023-01-24T09:06:41;678.88;;;630.83;;
31974;SDS011;18500;43.618;1.474;2023-01-24T09:09:07;616.17;;;571.60;;
31974;SDS011;18500;43.618;1.474;2023-01-24T09:11:33;670.97;;;623.47;;
31974;SDS011;18500;43.618;1.474;2023-01-24T09:13:58;680.20;;;631.90;;
31974;SDS011;18500;43.618;1.474;2023-01-24T09:16:24;696.53;;;647.25;;
31974;SDS011;18500;43.618;1.474;2023-01-24T09:18:52;719.97;;;668.25;;
31974;SDS011;18500;43.618;1.474;2023-01-24T09:21:19;699.80;;;650.78;;
31974;SDS011;18500;43.618;1.474;2023-01-24T09:23:45;696.58;;;647.25;;
31974;SDS011;18500;43.618;1.474;2023-01-24T09:26:11;698.70;;;648.05;;
31974;SDS011;18500;43.618;1.474;2023-01-24T09:28:36;664.53;;;618.50;;
31974;SDS011;18500;43.618;1.474;2023-01-24T09:31:02;650.47;;;604.83;;
31974;SDS011;18500;43.618;1.474;2023-01-24T09:33:31;724.10;;;672.47;;
31974;SDS011;18500;43.618;1.474;2023-01-24T09:35:58;724.85;;;672.60;;
31974;SDS011;18500;43.618;1.474;2023-01-24T09:38:26;709.97;;;658.97;;
31974;SDS011;18500;43.618;1.474;2023-01-24T09:43:58;663.03;;;615.53;;
31974;SDS011;18500;43.618;1.474;2023-01-24T09:46:48;683.30;;;634.60;;
31974;SDS011;18500;43.618;1.474;2023-01-24T09:51:52;722.28;;;670.80;;
31974;SDS011;18500;43.618;1.474;2023-01-24T09:54:32;704.53;;;653.60;;
31974;SDS011;18500;43.618;1.474;2023-01-24T09:57:06;734.55;;;680.58;;
31974;SDS011;18500;43.618;1.474;2023-01-24T09:59:47;797.75;;;737.58;;
31974;SDS011;18500;43.618;1.474;2023-01-24T10:02:18;616.35;;;570.08;;
31974;SDS011;18500;43.618;1.474;2023-01-24T10:04:46;717.05;;;659.80;;
31974;SDS011;18500;43.618;1.474;2023-01-24T10:09:48;701.63;;;647.00;;
31974;SDS011;18500;43.618;1.474;2023-01-24T10:15:37;891.38;;;814.00;;
31974;SDS011;18500;43.618;1.474;2023-01-24T10:18:40;951.10;;;867.95;;
31974;SDS011;18500;43.618;1.474;2023-01-24T10:24:12;912.88;;;838.80;;
31974;SDS011;18500;43.618;1.474;2023-01-24T10:26:46;912.35;;;834.72;;
31974;SDS011;18500;43.618;1.474;2023-01-24T10:29:15;893.15;;;818.97;;
31974;SDS011;18500;43.618;1.474;2023-01-24T10:32:05;794.83;;;734.35;;
31974;SDS011;18500;43.618;1.474;2023-01-24T10:34:46;859.35;;;789.83;;
31974;SDS011;18500;43.618;1.474;2023-01-24T10:37:20;763.70;;;705.08;;
31974;SDS011;18500;43.618;1.474;2023-01-24T10:39:51;906.30;;;832.65;;
31974;SDS011;18500;43.618;1.474;2023-01-24T10:42:27;830.22;;;764.92;;
31974;SDS011;18500;43.618;1.474;2023-01-24T10:44:55;771.22;;;715.08;;
31974;SDS011;18500;43.618;1.474;2023-01-24T10:49:52;766.65;;;710.15;;
31974;SDS011;18500;43.618;1.474;2023-01-24T10:52:23;897.72;;;829.78;;
31974;SDS011;18500;43.618;1.474;2023-01-24T11:00:01;745.50;;;688.83;;
31974;SDS011;18500;43.618;1.474;2023-01-24T11:02:31;767.30;;;708.92;;
31974;SDS011;18500;43.618;1.474;2023-01-24T11:05:04;665.13;;;616.78;;
31974;SDS011;18500;43.618;1.474;2023-01-24T11:10:04;459.65;;;429.40;;
31974;SDS011;18500;43.618;1.474;2023-01-24T11:13:16;658.45;;;606.90;;
31974;SDS011;18500;43.618;1.474;2023-01-24T11:15:59;628.40;;;585.17;;
31974;SDS011;18500;43.618;1.474;2023-01-24T11:18:34;770.95;;;711.33;;
31974;SDS011;18500;43.618;1.474;2023-01-24T11:21:19;591.03;;;548.10;;
31974;SDS011;18500;43.618;1.474;2023-01-24T11:23:45;801.33;;;739.72;;
31974;SDS011;18500;43.618;1.474;2023-01-24T11:26:24;629.58;;;582.35;;
31974;SDS011;18500;43.618;1.474;2023-01-24T11:28:55;617.28;;;574.65;;
31974;SDS011;18500;43.618;1.474;2023-01-24T11:31:25;639.25;;;594.33;;
31974;SDS011;18500;43.618;1.474;2023-01-24T11:40:12;511.30;;;473.58;;
31974;SDS011;18500;43.618;1.474;2023-01-24T11:45:36;462.80;;;429.63;;
31974;SDS011;18500;43.618;1.474;2023-01-24T11:53:26;518.28;;;483.60;;
31974;SDS011;18500;43.618;1.474;2023-01-24T12:07:06;728.83;;;671.38;;
31974;SDS011;18500;43.618;1.474;2023-01-24T12:20:39;790.07;;;730.00;;
31974;SDS011;18500;43.618;1.474;2023-01-24T12:23:31;889.55;;;818.25;;
31974;SDS011;18500;43.618;1.474;2023-01-24T12:26:00;943.50;;;863.58;;
31974;SDS011;18500;43.618;1.474;2023-01-24T12:28:34;924.60;;;848.60;;
31974;SDS011;18500;43.618;1.474;2023-01-24T12:31:13;846.30;;;784.05;;
31974;SDS011;18500;43.618;1.474;2023-01-24T12:33:49;924.47;;;851.63;;
31974;SDS011;18500;43.618;1.474;2023-01-24T12:39:14;720.78;;;667.28;;
31974;SDS011;18500;43.618;1.474;2023-01-24T12:41:47;768.88;;;714.92;;
31974;SDS011;18500;43.618;1.474;2023-01-24T12:44:25;582.45;;;542.10;;
31974;SDS011;18500;43.618;1.474;2023-01-24T12:47:16;216.48;;;201.55;;
31974;SDS011;18500;43.618;1.474;2023-01-24T12:49:53;479.02;;;445.30;;
31974;SDS011;18500;43.618;1.474;2023-01-24T12:55:14;1000.58;;;913.08;;
31974;SDS011;18500;43.618;1.474;2023-01-24T12:57:45;1037.97;;;945.83;;
31974;SDS011;18500;43.618;1.474;2023-01-24T13:00:21;1029.03;;;938.05;;
31974;SDS011;18500;43.618;1.474;2023-01-24T13:05:49;1030.80;;;939.92;;
31974;SDS011;18500;43.618;1.474;2023-01-24T13:08:45;901.67;;;833.35;;
31974;SDS011;18500;43.618;1.474;2023-01-24T13:11:43;1112.65;;;996.80;;
31974;SDS011;18500;43.618;1.474;2023-01-24T13:14:15;1008.95;;;923.92;;
31974;SDS011;18500;43.618;1.474;2023-01-24T13:33:47;1025.63;;;938.08;;
31974;SDS011;18500;43.618;1.474;2023-01-24T13:36:21;880.10;;;812.97;;
31974;SDS011;18500;43.618;1.474;2023-01-24T13:38:49;618.50;;;576.30;;
31974;SDS011;18500;43.618;1.474;2023-01-24T13:41:18;524.90;;;491.52;;
31974;SDS011;18500;43.618;1.474;2023-01-24T13:49:16;498.27;;;465.20;;
31974;SDS011;18500;43.618;1.474;2023-01-24T13:51:44;564.60;;;527.20;;
31974;SDS011;18500;43.618;1.474;2023-01-24T13:57:15;548.53;;;509.95;;
31974;SDS011;18500;43.618;1.474;2023-01-24T14:10:46;543.42;;;508.58;;
31974;SDS011;18500;43.618;1.474;2023-01-24T14:16:13;707.67;;;658.45;;
31974;SDS011;18500;43.618;1.474;2023-01-24T14:27:34;764.95;;;704.63;;
31974;SDS011;18500;43.618;1.474;2023-01-24T14:32:36;629.85;;;587.75;;
31974;SDS011;18500;43.618;1.474;2023-01-24T14:37:46;674.67;;;627.72;;
31974;SDS011;18500;43.618;1.474;2023-01-24T14:40:25;853.30;;;783.58;;
31974;SDS011;18500;43.618;1.474;2023-01-24T14:43:00;834.20;;;768.47;;
31974;SDS011;18500;43.618;1.474;2023-01-24T14:45:28;811.10;;;750.95;;
31974;SDS011;18500;43.618;1.474;2023-01-24T14:47:55;925.03;;;846.58;;
31974;SDS011;18500;43.618;1.474;2023-01-24T14:52:53;642.10;;;597.45;;
31974;SDS011;18500;43.618;1.474;2023-01-24T14:57:48;910.90;;;836.38;;
31974;SDS011;18500;43.618;1.474;2023-01-24T15:00:15;944.78;;;863.10;;
31974;SDS011;18500;43.618;1.474;2023-01-24T15:05:23;986.17;;;899.90;;
31974;SDS011;18500;43.618;1.474;2023-01-24T15:08:05;942.55;;;864.17;;
31974;SDS011;18500;43.618;1.474;2023-01-24T15:10:38;967.60;;;885.17;;
31974;SDS011;18500;43.618;1.474;2023-01-24T15:13:06;933.72;;;856.90;;
31974;SDS011;18500;43.618;1.474;2023-01-24T15:15:35;997.45;;;911.38;;
31974;SDS011;18500;43.618;1.474;2023-01-24T15:18:02;978.97;;;892.75;;
31974;SDS011;18500;43.618;1.474;2023-01-24T15:20:30;1061.78;;;961.95;;
31974;SDS011;18500;43.618;1.474;2023-01-24T15:22:58;1081.25;;;980.40;;
31974;SDS011;18500;43.618;1.474;2023-01-24T15:25:31;966.42;;;888.25;;
31974;SDS011;18500;43.618;1.474;2023-01-24T15:30:59;1042.65;;;952.80;;
31974;SDS011;18500;43.618;1.474;2023-01-24T15:33:40;1049.28;;;957.15;;
31974;SDS011;18500;43.618;1.474;2023-01-24T15:36:23;1013.88;;;926.90;;
31974;SDS011;18500;43.618;1.474;2023-01-24T15:38:56;989.40;;;908.08;;
31974;SDS011;18500;43.618;1.474;2023-01-24T15:41:25;942.33;;;862.97;;
31974;SDS011;18500;43.618;1.474;2023-01-24T15:44:12;1036.15;;;946.30;;
31974;SDS011;18500;43.618;1.474;2023-01-24T15:46:39;877.30;;;807.85;;
31974;SDS011;18500;43.618;1.474;2023-01-24T15:52:02;994.80;;;911.53;;
31974;SDS011;18500;43.618;1.474;2023-01-24T15:54:30;921.13;;;846.88;;
31974;SDS011;18500;43.618;1.474;2023-01-24T15:57:01;748.22;;;690.42;;
31974;SDS011;18500;43.618;1.474;2023-01-24T15:59:28;1039.03;;;947.72;;
31974;SDS011;18500;43.618;1.474;2023-01-24T16:01:55;998.58;;;914.15;;
31974;SDS011;18500;43.618;1.474;2023-01-24T16:04:21;903.55;;;832.40;;
31974;SDS011;18500;43.618;1.474;2023-01-24T16:06:48;827.30;;;766.40;;
31974;SDS011;18500;43.618;1.474;2023-01-24T16:09:14;724.03;;;671.80;;
31974;SDS011;18500;43.618;1.474;2023-01-24T16:11:44;709.22;;;656.80;;
31974;SDS011;18500;43.618;1.474;2023-01-24T16:14:22;562.92;;;524.58;;
31974;SDS011;18500;43.618;1.474;2023-01-24T16:16:49;708.40;;;656.10;;
31974;SDS011;18500;43.618;1.474;2023-01-24T16:19:18;578.35;;;537.58;;
31974;SDS011;18500;43.618;1.474;2023-01-24T16:21:47;693.97;;;643.33;;
31974;SDS011;18500;43.618;1.474;2023-01-24T16:24:13;811.33;;;748.88;;
31974;SDS011;18500;43.618;1.474;2023-01-24T16:26:46;819.13;;;754.03;;
31974;SDS011;18500;43.618;1.474;2023-01-24T16:29:15;738.28;;;680.72;;
31974;SDS011;18500;43.618;1.474;2023-01-24T16:31:43;750.85;;;694.70;;
31974;SDS011;18500;43.618;1.474;2023-01-24T16:34:10;736.85;;;682.65;;
31974;SDS011;18500;43.618;1.474;2023-01-24T16:36:35;792.35;;;732.45;;
31974;SDS011;18500;43.618;1.474;2023-01-24T16:39:02;725.08;;;671.63;;
31974;SDS011;18500;43.618;1.474;2023-01-24T16:41:28;711.15;;;657.92;;
31974;SDS011;18500;43.618;1.474;2023-01-24T16:43:54;878.45;;;810.58;;
31974;SDS011;18500;43.618;1.474;2023-01-24T16:46:20;863.42;;;794.97;;